Grand Mound, IA

8:42 PM CST on February 13, 2016 (GMT -0600)
MesoWest | | Change Station
CLOSE
Current Station
Personal Weather Station
Location: Grand Mound, IA
Elevation: 724 ft
Nearby Weather Stations
Active Advisory: Winter Weather Advisory

Elev 724 ft 41.82 °N, 90.65 °W | Updated 1 hour ago

Clear
Clear
16.0 °F
Feels Like 16.0 °F
N
0.0
Wind Variable Wind from North
Gusts 0.0 mph

Today
High -- | Low -- °F
--% Chance of Precip.
Yesterday
High -- | Low -- °F
Precip. -- in
Pressure 30.51 in
Visibility 10.0 miles
Clouds Clear
Dew Point Not available.
Humidity Not available.
Rainfall in
Snow Depth Not available.
7:01 AM 5:32 PM
Waxing Crescent, 36% visible
METAR KDVN 140152Z AUTO 10008KT 10SM CLR M09/M19 A3045 RMK AO2 SLP329 T10891189 $
Pressure 30.51 in
Visibility 10.0 miles
Clouds Clear
Dew Point Not available.
Humidity Not available.
Rainfall in
Snow Depth Not available.
7:01 AM 5:32 PM
Waxing Crescent, 36% visible
METAR KDVN 140152Z AUTO 10008KT 10SM CLR M09/M19 A3045 RMK AO2 SLP329 T10891189 $

10-Day Weather Forecast

Almanac

Astronomy

Feb. 13, 2016 Rise Set
Actual Time
Civil Twilight
Nautical Twilight
Astronomical Twilight
Moon
Length of Visible Light
Length of Day
Tomorrow will be .
, % of the Moon is Illuminated

Today's Extremes

State Highs State Lows

Community

WunderPhotos

Upload Photos

1,892,731 photos uploaded!

WunderBlog® & News

Nearby

Air Quality

  Air Quality AQ Index Pollutant
Not available.

Snow Depth

Station Depth Elevation

Earthquake Activity

City Distance Mag. Time & Date
Minimum magnitude displayed is 2.5.

Coastal Water Temperatures

Place Temperature

Stations

Nearby Weather Stations

Station Location Temp. Windchill Dew Point Humidity Wind Precip. Elev Updated Type
                   

Watches & Warnings

Winter Weather Advisory
Issued: 7:52 PM CST Feb. 13, 2016 – National Weather Service

... Winter Weather Advisory now in effect from 3 am to 6 PM CST
Sunday...

* timing... early Sunday morning continuing through the day on
Sunday.

* Snow accumulations... 2 to 5 inches.

* Wind... southeast 10 to 15 mph with gusts up to 25 mph overnight
and much of Sunday morning.

* Visibilities... less than a mile in the heavier snow at times.

* Impacts... snow covered and hazardous roads and low visibility
in heavier snowfall.

Precautionary/preparedness actions...

A Winter Weather Advisory for snow means that periods of snow
will cause travel difficulties. Be prepared for slick... snow
covered roads and limited visibilities... and be careful while
driving.